Palmer, AK

7:55 AM AKST on December 18, 2014 (GMT -0900)
Wasilla | Change Station
CLOSE
Current Station
Airport
Location: Wasilla,
Elevation: 351 ft
Nearby Weather Stations

Elev 351 ft 61.57 °N, 149.54 °W | Updated 19 minutes ago

Clear
Clear
28 °F
Feels Like 18 °F
N
13
Wind Variable Wind from ENE
Gusts 20 mph

Today
High -- | Low -- °F
--% Chance of Precip.
Yesterday
High -- | Low -- °F
Precip. -- in
10:13 AM 3:32 PM
Waning Crescent, 13% visible
Pressure 29.52 in
Visibility 10.0 miles
Clouds Clear
Windchill 18 °F
Dew Point 10 °F
Humidity 47%
Rainfall 0.00 in
Snow Depth Not available.
UV 0 out of 12
Pollen Not available.
Air Quality Not available.
Flu Activity Not available.
METAR PAWS 181636Z AUTO 06011G17KT 10SM CLR M02/M12 A2952 RMK AO1

More Conditions Fewer Conditions

Pressure 29.52 in
Visibility 10.0 miles
Clouds Clear
Windchill 18 °F
Dew Point 10 °F
Humidity 47%
Rainfall 0.00 in
Snow Depth Not available.
UV 0 out of 12
Pollen Not available.
Air Quality Not available.
Flu Activity Not available.
METAR PAWS 181636Z AUTO 06011G17KT 10SM CLR M02/M12 A2952 RMK AO1

More Conditions Fewer Conditions

10-Day Weather Forecast

Almanac

Astronomy

Dec. 18, 2014 Rise Set
Actual Time
Civil Twilight
Nautical Twilight
Astronomical Twilight
Moon
Length of Visible Light
Length of Day
Tomorrow will be .
, % of the Moon is Illuminated

Today's Extremes

State Highs State Lows

Community

WunderPhotos

Upload Photos

1,778,960 photos uploaded!

WunderBlogs® & News

Nearby

Air Quality

  Air Quality AQ Index Pollutant
Not available.

Snow Depth

Station Depth Elevation

Earthquake Activity

City Distance Mag. Time & Date
Minimum magnitude displayed is 2.5.

Coastal Water Temperatures

Place Temperature

Nearby Weather Stations